Time;durP1;ratioP1;P1;durP2;ratioP2;P2;SDS_P1;SDS_P2;PMS_P1;PMS_P2;Temp;Humidity;BMP_temperature;BMP_pressure;BME280_temperature;BME280_humidity;BME280_pressure;Samples;Min_cycle;Max_cycle;Signal;HPM_P1;HPM_P2
2022/12/13 00:02:02;;;;;;;;;;;;;;;-4.24;86.26;96783.69;107661;1265;71990;-65
2022/12/13 00:04:31;;;;;;;18.60;9.90;;;;;;;-4.26;86.54;96784.73;107638;1265;68274;-66
2022/12/13 00:07:01;;;;;;;21.00;12.40;;;;;;;-4.28;86.76;96788.34;107654;1269;70323;-66
2022/12/13 00:09:31;;;;;;;15.40;9.00;;;;;;;-4.30;86.18;96790.29;107688;1269;59792;-65
2022/12/13 00:12:00;;;;;;;16.10;10.30;;;;;;;-4.34;86.08;96793.10;107705;1267;59686;-65
2022/12/13 00:14:31;;;;;;;15.90;9.70;;;;;;;-4.40;86.26;96791.35;107647;1269;71902;-65
2022/12/13 00:17:00;;;;;;;;;;;;;;;-4.45;86.11;96796.59;107667;1269;70024;-65
2022/12/13 00:19:29;;;;;;;13.70;9.10;;;;;;;-4.51;85.85;96805.58;107702;1269;69782;-65
2022/12/13 00:21:58;;;;;;;16.50;10.20;;;;;;;-4.59;86.71;96805.42;107608;1265;59782;-65
2022/12/13 00:24:27;;;;;;;17.00;9.50;;;;;;;-4.67;89.36;96808.48;107651;1269;59752;-65
2022/12/13 00:26:57;;;;;;;18.00;12.30;;;;;;;-4.76;88.85;96806.46;107666;1269;70816;-65
2022/12/13 00:29:28;;;;;;;30.50;19.30;;;;;;;-4.84;88.75;96800.69;107671;1265;69107;-65
2022/12/13 00:31:57;;;;;;;22.80;14.40;;;;;;;-4.92;88.89;96794.55;107668;1269;68761;-65
2022/12/13 00:34:29;;;;;;;22.80;13.10;;;;;;;-4.98;88.31;96794.52;107694;1269;59737;-65
2022/12/13 00:36:59;;;;;;;;;;;;;;;-5.02;87.59;96796.83;107653;1269;59770;-65
2022/12/13 00:39:29;;;;;;;21.40;13.80;;;;;;;-5.06;87.61;96794.69;107676;1269;70195;-65
2022/12/13 00:41:58;;;;;;;20.30;12.10;;;;;;;-5.12;89.64;96797.70;107720;1266;70234;-65
2022/12/13 00:44:28;;;;;;;23.10;12.30;;;;;;;-5.18;89.00;96794.44;107628;1269;69130;-65
2022/12/13 00:46:58;;;;;;;20.80;11.10;;;;;;;-5.23;87.48;96794.55;107741;1269;59706;-65
2022/12/13 00:49:28;;;;;;;18.90;10.40;;;;;;;-5.25;87.38;96793.55;107670;1268;59720;-65
2022/12/13 00:51:59;;;;;;;18.30;10.60;;;;;;;-5.28;87.53;96792.77;107599;1269;71698;-64
2022/12/13 00:54:30;;;;;;;16.30;9.40;;;;;;;-5.32;87.37;96794.54;107652;1270;69214;-65
2022/12/13 00:56:59;;;;;;;15.80;10.50;;;;;;;-5.36;87.93;96799.39;107637;1269;69210;-65
2022/12/13 00:59:29;;;;;;;34.10;19.20;;;;;;;-5.41;89.79;96799.14;107662;1269;59768;-65
2022/12/13 01:01:58;;;;;;;50.90;26.00;;;;;;;-5.46;91.06;96800.27;107643;1265;59660;-65
2022/12/13 01:04:28;;;;;;;35.00;20.40;;;;;;;-5.51;92.30;96800.88;107662;1269;71269;-65
2022/12/13 01:06:58;;;;;;;25.80;15.70;;;;;;;-5.57;92.28;96799.62;107667;1265;69703;-65
2022/12/13 01:09:29;;;;;;;;;;;;;;;-5.62;92.53;96794.79;107664;1269;69313;-65
2022/12/13 01:12:01;;;;;;;20.80;11.10;;;;;;;-5.66;92.17;96793.35;107648;1269;59725;-65
2022/12/13 01:14:34;;;;;;;21.00;12.90;;;;;;;-5.69;91.80;96790.33;107661;1265;59700;-65
2022/12/13 01:17:05;;;;;;;16.10;10.60;;;;;;;-5.70;92.56;96785.77;107682;1269;71409;-65
2022/12/13 01:19:35;;;;;;;18.40;10.80;;;;;;;-5.72;92.18;96788.36;107673;1269;68327;-65
2022/12/13 01:22:06;;;;;;;21.10;12.40;;;;;;;-5.72;92.79;96788.36;107711;1265;69919;-65
2022/12/13 01:24:37;;;;;;;15.80;9.50;;;;;;;-5.72;92.73;96792.45;107651;1269;59705;-65
2022/12/13 01:27:07;;;;;;;;;;;;;;;-5.72;92.68;96798.71;107670;1269;59726;-65
2022/12/13 01:29:38;;;;;;;14.10;9.50;;;;;;;-5.72;93.31;96795.66;107687;1266;71338;-64
2022/12/13 01:32:09;;;;;;;24.00;11.00;;;;;;;-5.72;93.56;96798.88;107680;1266;69261;-65
2022/12/13 01:34:38;;;;;;;14.70;9.40;;;;;;;-5.73;93.55;96800.95;107693;1269;69545;-65
2022/12/13 01:37:08;;;;;;;;;;;;;;;-5.73;93.42;96797.20;107658;1269;59712;-65
2022/12/13 01:39:38;;;;;;;13.10;7.30;;;;;;;-5.73;93.39;96796.02;107654;1269;59706;-65
2022/12/13 01:42:13;;;;;;;11.70;6.50;;;;;;;-5.72;92.73;96797.86;107680;1265;71649;-65
2022/12/13 01:44:59;;;;;;;19.10;10.70;;;;;;;-5.71;92.13;96793.77;107662;1265;69540;-65
2022/12/13 01:47:51;;;;;;;15.50;9.40;;;;;;;-5.71;93.32;96792.23;107652;1265;69076;-65
2022/12/13 01:50:27;;;;;;;13.10;9.00;;;;;;;-5.73;93.38;96797.20;107671;1266;59737;-65
2022/12/13 01:52:59;;;;;;;18.70;9.70;;;;;;;-5.76;93.15;96797.42;107698;1269;59726;-65
2022/12/13 01:55:33;;;;;;;17.00;9.70;;;;;;;-5.80;93.12;96796.14;107697;1258;70417;-65
2022/12/13 01:58:11;;;;;;;17.20;9.60;;;;;;;-5.84;92.04;96793.65;107645;1269;69172;-65
2022/12/13 02:00:42;;;;;;;15.60;9.20;;;;;;;-5.88;91.75;96789.98;107679;1269;69251;-65
2022/12/13 02:03:14;;;;;;;16.40;9.00;;;;;;;-5.91;92.47;96790.58;107650;1265;59767;-65
2022/12/13 02:06:00;;;;;;;17.50;9.60;;;;;;;-5.94;92.98;96796.58;107628;1269;59729;-66
2022/12/13 02:08:30;;;;;;;13.90;7.80;;;;;;;-5.97;93.06;96800.88;107635;1269;71386;-65
2022/12/13 02:11:05;;;;;;;15.00;8.90;;;;;;;-6.00;92.69;96802.64;107688;1270;69848;-65
2022/12/13 02:13:36;;;;;;;14.90;9.00;;;;;;;-6.04;92.13;96804.08;107676;1268;68645;-66
2022/12/13 02:16:15;;;;;;;13.40;9.20;;;;;;;-6.09;91.90;96805.00;107664;1265;59794;-65
2022/12/13 02:18:56;;;;;;;14.60;7.60;;;;;;;-6.15;92.61;96801.88;107651;1269;60118;-65
2022/12/13 02:21:49;;;;;;;14.30;8.50;;;;;;;-6.19;93.35;96804.65;107677;1269;71885;-65
2022/12/13 02:24:25;;;;;;;15.10;9.70;;;;;;;-6.23;93.99;96804.54;107630;1266;69207;-65
2022/12/13 02:26:59;;;;;;;19.60;10.00;;;;;;;-6.29;93.41;96805.83;107609;1266;68416;-65
2022/12/13 02:29:35;;;;;;;16.00;8.60;;;;;;;-6.33;93.32;96809.63;107646;1265;59771;-65
2022/12/13 02:32:15;;;;;;;17.60;9.10;;;;;;;-6.37;93.44;96808.68;107659;1268;59752;-65
2022/12/13 02:35:17;;;;;;;18.80;10.90;;;;;;;-6.42;93.11;96808.40;107777;1267;70452;-64
2022/12/13 02:38:01;;;;;;;14.20;10.00;;;;;;;-6.45;92.64;96807.45;107704;1266;69936;-66
2022/12/13 02:40:42;;;;;;;22.60;13.80;;;;;;;-6.48;92.68;96814.43;107692;1269;68746;-65
2022/12/13 02:43:25;;;;;;;20.40;11.40;;;;;;;-6.52;92.59;96816.19;107719;1265;59693;-65
2022/12/13 02:46:05;;;;;;;14.40;10.00;;;;;;;-6.57;92.30;96819.48;107744;1270;59765;-65
2022/12/13 02:48:39;;;;;;;17.80;10.10;;;;;;;-6.60;92.38;96821.23;107702;1266;71885;-65
2022/12/13 02:51:10;;;;;;;20.00;10.80;;;;;;;-6.62;92.94;96822.11;107732;1264;68473;-65
2022/12/13 02:53:44;;;;;;;15.40;9.80;;;;;;;-6.63;92.59;96819.75;107703;1265;68695;-65
2022/12/13 02:56:14;;;;;;;13.30;7.80;;;;;;;-6.66;92.22;96821.46;107708;1269;59725;-65
2022/12/13 02:58:47;;;;;;;13.80;10.40;;;;;;;-6.67;92.17;96821.65;107739;1269;59746;-65
2022/12/13 03:01:36;;;;;;;17.20;9.20;;;;;;;-6.68;92.07;96823.72;107709;1265;72001;-65
2022/12/13 03:08:17;;;;;;;16.50;9.10;;;;;;;-6.63;94.21;96820.60;107651;1270;67484;-65
2022/12/13 03:11:09;;;;;;;16.60;9.70;;;;;;;-6.61;94.18;96824.63;107665;1268;59708;-65
2022/12/13 03:13:57;;;;;;;17.40;10.70;;;;;;;-6.58;94.25;96833.06;107690;1269;59769;-65
2022/12/13 03:16:43;;;;;;;15.20;9.40;;;;;;;-6.51;94.48;96839.58;107705;1270;71327;-64
2022/12/13 03:19:14;;;;;;;18.80;12.40;;;;;;;-6.45;94.61;96844.56;107659;1269;68686;-64
2022/12/13 03:21:48;;;;;;;19.80;12.70;;;;;;;-6.38;94.55;96844.64;107671;1269;69443;-65
2022/12/13 03:24:20;;;;;;;23.20;14.40;;;;;;;-6.30;94.94;96848.94;107706;1269;59721;-64
2022/12/13 03:26:50;;;;;;;18.60;12.20;;;;;;;-6.22;95.42;96852.02;107687;1269;59713;-65
2022/12/13 03:29:23;;;;;;;13.20;9.60;;;;;;;-6.14;94.94;96854.96;107670;1269;70668;-65
2022/12/13 03:31:53;;;;;;;20.10;11.50;;;;;;;-6.07;94.43;96858.75;107702;1269;68271;-66
2022/12/13 03:34:22;;;;;;;19.40;11.50;;;;;;;-6.00;94.18;96859.48;107675;1269;68433;-65
2022/12/13 03:37:12;;;;;;;16.50;10.20;;;;;;;-5.91;94.94;96859.64;107682;1270;59745;-66
2022/12/13 03:39:42;;;;;;;16.50;10.00;;;;;;;-5.84;94.64;96862.23;107647;1270;59722;-65
2022/12/13 03:42:11;;;;;;;15.50;8.50;;;;;;;-5.78;94.17;96860.60;107661;1266;72115;-66
2022/12/13 03:44:41;;;;;;;19.40;9.90;;;;;;;-5.73;93.22;96855.27;107715;1268;68509;-65
2022/12/13 03:47:11;;;;;;;21.90;12.40;;;;;;;-5.70;92.16;96853.32;107682;1269;69985;-67
2022/12/13 03:49:40;;;;;;;22.30;12.00;;;;;;;-5.67;91.75;96856.16;107690;1265;59772;-65
2022/12/13 03:52:10;;;;;;;19.40;11.00;;;;;;;-5.65;91.56;96859.86;107719;1269;59773;-65
2022/12/13 03:54:40;;;;;;;20.40;12.00;;;;;;;-5.64;91.35;96863.41;107741;1264;69577;-65
2022/12/13 03:57:14;;;;;;;21.60;12.50;;;;;;;-5.60;91.28;96861.99;107688;1265;68528;-65
2022/12/13 03:59:43;;;;;;;22.10;13.60;;;;;;;-5.59;91.11;96863.16;107687;1268;69921;-65
2022/12/13 04:02:12;;;;;;;22.60;13.20;;;;;;;-5.57;90.76;96865.16;107671;1270;59719;-65
2022/12/13 04:04:59;;;;;;;25.40;14.80;;;;;;;-5.56;90.55;96866.34;107713;1269;59706;-65
2022/12/13 04:07:29;;;;;;;;;;;;;;;-5.55;90.54;96868.52;107723;1269;69536;-65
2022/12/13 04:10:06;;;;;;;26.20;15.10;;;;;;;-5.54;90.49;96865.46;107709;1269;70168;-65
2022/12/13 04:15:47;;;;;;;26.70;14.70;;;;;;;-5.52;91.78;96866.77;107707;1269;59770;-65
2022/12/13 04:18:19;;;;;;;25.60;14.90;;;;;;;-5.47;93.30;96869.06;107698;1270;59685;-66
2022/12/13 04:20:48;;;;;;;20.40;13.40;;;;;;;-5.43;93.65;96872.37;107686;1270;69658;-65
2022/12/13 04:23:18;;;;;;;24.00;13.00;;;;;;;-5.39;93.79;96869.92;107737;1269;69178;-65
2022/12/13 04:25:48;;;;;;;26.20;15.20;;;;;;;-5.35;94.38;96873.60;107446;1270;69323;-65
2022/12/13 04:28:18;;;;;;;22.50;12.90;;;;;;;-5.33;94.56;96874.91;107704;1269;59765;-64
2022/12/13 04:30:51;;;;;;;19.10;11.80;;;;;;;-5.31;94.19;96877.10;107689;1270;60356;-65
2022/12/13 04:33:22;;;;;;;21.50;11.90;;;;;;;-5.29;93.78;96882.13;107688;1269;71397;-64
2022/12/13 04:35:51;;;;;;;16.10;10.20;;;;;;;-5.26;93.66;96884.81;107723;1269;69818;-65
2022/12/13 04:38:21;;;;;;;20.20;11.50;;;;;;;-5.23;93.19;96886.97;107641;1270;69038;-66
2022/12/13 04:40:51;;;;;;;15.80;10.40;;;;;;;-5.21;93.28;96886.91;107680;1266;59683;-65
2022/12/13 04:43:21;;;;;;;20.00;12.10;;;;;;;-5.18;93.29;96892.11;107657;1266;59747;-66
2022/12/13 04:45:50;;;;;;;21.30;15.20;;;;;;;-5.15;93.20;96887.64;107637;1264;71426;-66
2022/12/13 04:48:19;;;;;;;22.70;14.70;;;;;;;-5.13;93.13;96892.88;107629;1269;69840;-66
2022/12/13 04:51:01;;;;;;;18.90;13.20;;;;;;;-5.10;92.98;96891.80;107628;1266;69763;-66
2022/12/13 04:53:31;;;;;;;20.20;12.20;;;;;;;-5.06;92.86;96897.01;107665;1269;59790;-66
2022/12/13 04:56:03;;;;;;;19.90;10.80;;;;;;;-5.05;92.38;96899.35;107658;1269;59779;-66
2022/12/13 04:58:33;;;;;;;16.20;10.20;;;;;;;-5.03;91.93;96900.01;107664;1269;71900;-65
2022/12/13 05:01:06;;;;;;;19.70;10.90;;;;;;;-5.01;91.55;96896.73;107637;1269;69168;-65
2022/12/13 05:03:36;;;;;;;21.20;11.70;;;;;;;-4.99;91.67;96902.13;107605;1270;69311;-65
2022/12/13 05:06:13;;;;;;;21.40;12.20;;;;;;;-4.96;92.42;96898.16;107641;1269;59727;-65
2022/12/13 05:08:56;;;;;;;15.20;9.40;;;;;;;-4.93;92.01;96904.58;107658;1269;59726;-65
2022/12/13 05:11:28;;;;;;;17.20;11.20;;;;;;;-4.91;91.81;96903.16;107675;1270;70237;-65
2022/12/13 05:14:03;;;;;;;20.80;12.70;;;;;;;-4.88;91.96;96908.55;107661;1270;69811;-66
2022/12/13 05:16:33;;;;;;;22.90;12.80;;;;;;;-4.84;92.01;96910.34;107638;1269;69312;-67
2022/12/13 05:19:02;;;;;;;22.20;13.10;;;;;;;-4.83;91.89;96915.08;107656;1268;59759;-65
2022/12/13 05:21:33;;;;;;;19.20;12.00;;;;;;;-4.83;91.89;96913.54;107665;1269;59710;-66
2022/12/13 05:24:03;;;;;;;17.00;10.40;;;;;;;-4.82;91.97;96916.75;107672;1270;70786;-66
2022/12/13 05:26:33;;;;;;;14.70;9.30;;;;;;;-4.80;92.04;96918.25;107667;1269;68475;-67
2022/12/13 05:29:03;;;;;;;;;;;;;;;-4.77;91.69;96918.85;107638;1270;69297;-65
2022/12/13 05:31:33;;;;;;;15.30;8.70;;;;;;;-4.76;90.87;96921.05;107658;1269;59778;-66
2022/12/13 05:34:01;;;;;;;15.00;9.20;;;;;;;-4.75;90.20;96918.99;107806;1265;59693;-65
2022/12/13 05:36:30;;;;;;;15.00;9.50;;;;;;;-4.72;90.27;96918.24;107713;1270;71815;-65
2022/12/13 05:38:59;;;;;;;16.00;9.30;;;;;;;-4.70;90.63;96920.59;107693;1269;69802;-65
2022/12/13 05:41:34;;;;;;;15.20;9.20;;;;;;;-4.69;90.03;96919.21;107668;1269;68586;-65
2022/12/13 05:44:04;;;;;;;16.40;9.70;;;;;;;-4.69;90.59;96923.45;107431;1270;59778;-65
2022/12/13 05:46:33;;;;;;;;;;;;;;;-4.67;91.21;96926.81;107674;1270;59732;-65
2022/12/13 05:49:09;;;;;;;14.70;8.00;;;;;;;-4.66;90.93;96933.44;107684;1270;70944;-65
2022/12/13 05:51:38;;;;;;;15.20;9.40;;;;;;;-4.65;90.12;96933.75;107673;1266;69864;-65
2022/12/13 05:54:08;;;;;;;13.80;10.00;;;;;;;-4.64;89.95;96931.19;107673;1269;69913;-66
2022/12/13 05:56:37;;;;;;;18.90;10.80;;;;;;;-4.63;89.90;96937.61;107686;1270;59757;-66
2022/12/13 05:59:07;;;;;;;30.00;17.80;;;;;;;-4.63;89.74;96937.61;107715;1270;59814;-66
2022/12/13 06:01:37;;;;;;;;;;;;;;;-4.67;89.69;96941.77;107703;1269;72234;-66
2022/12/13 06:04:12;;;;;;;25.70;14.70;;;;;;;-4.69;90.00;96944.05;107694;1269;69822;-66
2022/12/13 06:06:51;;;;;;;26.50;16.40;;;;;;;-4.71;90.53;96951.56;107687;1269;69903;-65
2022/12/13 06:09:20;;;;;;;21.40;13.90;;;;;;;-4.70;91.04;96956.81;107729;1271;59687;-65
2022/12/13 06:11:50;;;;;;;22.40;11.50;;;;;;;-4.69;91.32;96961.03;107694;1268;59684;-65
2022/12/13 06:14:29;;;;;;;17.70;10.60;;;;;;;-4.66;91.10;96965.23;107707;1269;71868;-65
2022/12/13 06:16:58;;;;;;;21.70;12.40;;;;;;;-4.62;90.98;96968.55;107686;1269;68579;-65
2022/12/13 06:19:28;;;;;;;22.70;11.80;;;;;;;-4.59;90.70;96967.81;107693;1270;69293;-65
2022/12/13 06:21:56;;;;;;;18.90;11.30;;;;;;;-4.55;90.97;96967.59;107721;1270;59686;-65
2022/12/13 06:24:26;;;;;;;20.40;11.10;;;;;;;-4.53;90.67;96968.04;107645;1270;59779;-65
2022/12/13 06:26:55;;;;;;;16.50;10.90;;;;;;;-4.50;90.36;96967.98;107698;1266;70896;-65
2022/12/13 06:29:24;;;;;;;16.30;10.00;;;;;;;-4.46;90.19;96966.36;107699;1273;70182;-66
2022/12/13 06:31:59;;;;;;;15.50;9.00;;;;;;;-4.40;89.90;96967.09;107665;1268;68701;-65
2022/12/13 06:34:34;;;;;;;19.00;10.30;;;;;;;-4.35;90.01;96968.02;107639;1269;59757;-65
2022/12/13 06:37:06;;;;;;;16.20;9.60;;;;;;;-4.29;89.98;96968.39;107654;1269;59702;-66
2022/12/13 06:39:35;;;;;;;16.90;10.10;;;;;;;-4.24;89.46;96967.60;107684;1269;72017;-66
2022/12/13 06:42:05;;;;;;;15.80;10.10;;;;;;;-4.19;88.16;96976.00;107632;1270;69240;-67
2022/12/13 06:44:35;;;;;;;17.40;10.30;;;;;;;-4.16;87.45;96978.31;107680;1268;68927;-65
2022/12/13 06:47:05;;;;;;;17.10;11.30;;;;;;;-4.10;87.45;96985.35;107637;1269;59780;-65
2022/12/13 06:49:42;;;;;;;15.40;10.00;;;;;;;-4.05;87.59;96987.95;107692;1270;59767;-66
2022/12/13 06:52:13;;;;;;;15.20;10.00;;;;;;;-4.00;87.70;96988.04;107663;1269;70702;-66
2022/12/13 06:54:42;;;;;;;16.70;10.80;;;;;;;-3.97;86.39;96987.94;107667;1269;69191;-66
2022/12/13 06:57:11;;;;;;;18.00;10.40;;;;;;;-3.90;86.13;96994.09;107636;1269;67355;-66
2022/12/13 06:59:41;;;;;;;18.30;11.10;;;;;;;-3.86;86.34;96989.91;107667;1270;59726;-66
2022/12/13 07:02:10;;;;;;;19.10;11.60;;;;;;;-3.80;86.08;96993.88;107669;1269;59633;-66
2022/12/13 07:04:56;;;;;;;18.70;10.60;;;;;;;-3.76;86.82;96989.18;107618;1262;71773;-67
2022/12/13 07:07:25;;;;;;;18.40;11.40;;;;;;;-3.69;87.31;96994.48;107655;1266;69040;-66
2022/12/13 07:09:54;;;;;;;19.00;10.90;;;;;;;-3.63;87.28;96991.96;107633;1270;69257;-66
2022/12/13 07:12:25;;;;;;;17.40;10.40;;;;;;;-3.53;87.43;96998.89;107653;1269;59727;-65
2022/12/13 07:14:55;;;;;;;21.60;12.70;;;;;;;-3.45;85.55;97000.39;107670;1272;59708;-66
2022/12/13 07:17:24;;;;;;;17.00;11.30;;;;;;;-3.33;85.53;96999.77;107654;1265;71044;-67
2022/12/13 07:20:06;;;;;;;16.90;11.00;;;;;;;-3.22;84.29;97005.45;107642;1273;69448;-65
2022/12/13 07:22:36;;;;;;;16.40;10.00;;;;;;;-3.09;82.48;97006.34;107651;1269;69906;-65
2022/12/13 07:25:15;;;;;;;16.40;10.80;;;;;;;-2.92;82.00;97007.77;107634;1268;59789;-66
2022/12/13 07:28:00;;;;;;;20.10;11.30;;;;;;;-2.72;81.39;97010.33;107657;1269;59716;-66
2022/12/13 07:30:38;;;;;;;17.40;10.80;;;;;;;-2.49;80.67;97011.23;107644;1270;70626;-66
2022/12/13 07:33:09;;;;;;;19.30;11.20;;;;;;;-2.08;79.28;97009.41;107657;1265;69924;-66
2022/12/13 07:35:38;;;;;;;18.00;10.20;;;;;;;-1.65;77.00;97009.65;107662;1270;68774;-66
2022/12/13 07:38:08;;;;;;;17.30;11.10;;;;;;;-1.11;76.07;97014.42;107614;1268;59726;-67
2022/12/13 07:40:38;;;;;;;;;;;;;;;-0.65;75.31;97019.90;107690;1269;59766;-66
2022/12/13 07:43:09;;;;;;;20.30;12.10;;;;;;;-0.20;71.01;97021.73;107671;1269;72022;-66
2022/12/13 07:45:38;;;;;;;;;;;;;;;0.16;70.05;97018.37;107666;1270;69068;-66
2022/12/13 07:48:07;;;;;;;30.60;17.80;;;;;;;0.46;70.52;97017.89;107657;1269;69779;-66
2022/12/13 07:50:36;;;;;;;29.20;18.60;;;;;;;0.85;71.21;97017.92;107709;1269;59698;-67
2022/12/13 07:53:07;;;;;;;27.00;19.60;;;;;;;1.20;70.07;97024.38;107698;1270;59703;-66
2022/12/13 07:55:37;;;;;;;18.20;12.70;;;;;;;1.06;65.14;97024.41;107693;1266;71376;-66
2022/12/13 07:58:13;;;;;;;20.20;14.20;;;;;;;1.41;69.43;97031.39;107724;1269;69161;-66
2022/12/13 08:00:44;;;;;;;21.50;16.40;;;;;;;1.64;63.96;97035.55;107703;1271;69651;-65
2022/12/13 08:03:14;;;;;;;21.70;16.20;;;;;;;1.70;62.89;97039.93;107660;1270;59774;-66
2022/12/13 08:06:23;;;;;;;24.80;19.00;;;;;;;1.91;62.62;97042.63;107668;1270;59730;-66
2022/12/13 08:08:56;;;;;;;21.90;15.50;;;;;;;2.22;61.04;97043.15;107598;1269;70426;-66
2022/12/13 08:11:25;;;;;;;20.00;13.10;;;;;;;2.31;60.21;97043.58;107703;1260;69182;-66
2022/12/13 08:13:53;;;;;;;19.00;11.70;;;;;;;2.39;59.59;97042.89;107668;1274;69232;-67
2022/12/13 08:16:22;;;;;;;21.40;14.70;;;;;;;2.77;59.14;97046.06;107733;1273;59780;-67
2022/12/13 08:18:58;;;;;;;16.20;13.20;;;;;;;2.96;57.78;97045.32;107727;1270;59773;-67
2022/12/13 08:21:36;;;;;;;19.80;13.30;;;;;;;3.58;58.17;97052.14;107717;1266;72035;-67
2022/12/13 08:24:26;;;;;;;17.40;12.40;;;;;;;4.27;55.17;97050.05;107720;1268;69236;-67
2022/12/13 08:27:01;;;;;;;17.80;12.70;;;;;;;4.61;53.38;97047.89;107685;1270;69786;-68
2022/12/13 08:29:33;;;;;;;19.60;13.00;;;;;;;4.66;52.87;97049.32;107671;1270;59780;-68
2022/12/13 08:32:09;;;;;;;21.50;15.90;;;;;;;5.32;52.07;97049.80;107787;1267;59703;-67
2022/12/13 08:34:40;;;;;;;18.60;14.30;;;;;;;5.20;51.59;97052.37;107659;1268;71972;-67
2022/12/13 08:37:09;;;;;;;18.20;13.60;;;;;;;5.31;51.43;97056.79;107706;1268;69837;-68
2022/12/13 08:39:38;;;;;;;17.20;12.40;;;;;;;5.30;51.47;97054.54;107669;1270;69952;-67
2022/12/13 08:42:15;;;;;;;18.80;14.00;;;;;;;5.96;53.91;97055.77;107723;1269;59728;-68
2022/12/13 08:44:49;;;;;;;16.90;12.40;;;;;;;5.28;50.39;97054.15;107623;1268;59794;-66
2022/12/13 08:47:23;;;;;;;17.00;12.00;;;;;;;4.91;51.63;97053.14;107672;1269;71447;-67
2022/12/13 08:49:57;;;;;;;13.80;10.50;;;;;;;4.72;51.18;97053.88;107696;1269;69288;-67
2022/12/13 08:52:32;;;;;;;15.50;11.60;;;;;;;4.63;51.30;97052.95;107683;1270;69809;-67
2022/12/13 08:55:12;;;;;;;14.30;11.00;;;;;;;4.50;52.08;97054.39;107703;1269;59698;-67
2022/12/13 08:57:42;;;;;;;15.50;11.90;;;;;;;4.07;52.77;97055.78;107689;1271;59749;-66
2022/12/13 09:00:14;;;;;;;19.60;12.80;;;;;;;3.18;53.98;97057.19;107664;1269;71409;-67
2022/12/13 09:02:43;;;;;;;14.90;10.10;;;;;;;2.82;55.71;97054.80;107730;1269;68256;-67
2022/12/13 09:05:13;;;;;;;15.90;11.20;;;;;;;2.72;55.87;97056.48;107703;1268;69303;-67
2022/12/13 09:08:03;;;;;;;19.70;12.00;;;;;;;2.61;56.71;97048.39;107682;1271;59778;-67
2022/12/13 09:10:57;;;;;;;18.70;11.10;;;;;;;3.18;55.79;97050.13;107660;1270;59674;-67
2022/12/13 09:13:31;;;;;;;15.70;9.90;;;;;;;3.78;53.78;97048.02;107702;1266;72018;-67
2022/12/13 09:16:11;;;;;;;15.40;10.80;;;;;;;4.46;51.54;97045.11;107696;1268;69036;-67
2022/12/13 09:18:52;;;;;;;14.60;10.60;;;;;;;4.80;50.77;97040.48;107650;1270;68711;-67
2022/12/13 09:21:23;;;;;;;13.90;10.50;;;;;;;4.71;50.85;97040.98;107719;1269;59775;-68
2022/12/13 09:24:00;;;;;;;10.80;8.20;;;;;;;4.12;51.55;97042.23;107714;1270;59767;-66
2022/12/13 09:26:30;;;;;;;15.60;11.30;;;;;;;4.40;51.74;97042.84;107691;1270;71363;-69
2022/12/13 09:29:06;;;;;;;13.00;10.10;;;;;;;4.11;52.35;97039.53;107692;1269;69809;-66
2022/12/13 09:31:39;;;;;;;12.90;9.30;;;;;;;3.56;52.51;97045.66;107656;1270;70568;-67
2022/12/13 09:34:10;;;;;;;14.00;9.70;;;;;;;2.97;53.76;97047.19;107624;1269;59712;-66
2022/12/13 09:36:38;;;;;;;13.40;8.80;;;;;;;2.61;54.37;97041.83;107716;1270;59750;-67
2022/12/13 09:39:10;;;;;;;14.30;9.70;;;;;;;2.19;55.63;97044.14;107662;1269;70903;-68
2022/12/13 09:41:51;;;;;;;11.70;9.30;;;;;;;2.07;55.39;97046.89;107713;1268;68626;-67
2022/12/13 09:44:38;;;;;;;13.20;8.80;;;;;;;1.92;56.12;97043.60;107704;1269;69250;-67
2022/12/13 09:47:38;;;;;;;10.80;7.70;;;;;;;1.90;55.78;97044.21;107664;1266;59763;-67
2022/12/13 09:50:31;;;;;;;13.20;9.30;;;;;;;2.20;54.82;97038.20;107624;1269;59831;-68
2022/12/13 09:53:07;;;;;;;13.00;9.30;;;;;;;2.61;53.85;97035.83;107667;1270;72094;-67
2022/12/13 09:55:51;;;;;;;13.80;9.40;;;;;;;2.99;53.92;97042.59;107679;1270;69424;-67
2022/12/13 09:58:25;;;;;;;13.90;9.70;;;;;;;2.76;53.94;97037.69;107658;1270;69779;-67
2022/12/13 10:00:55;;;;;;;10.20;7.70;;;;;;;2.71;53.36;97036.39;107604;1270;59780;-67
2022/12/13 10:03:25;;;;;;;9.30;7.40;;;;;;;2.76;53.80;97039.94;107659;1274;59722;-68
2022/12/13 10:05:57;;;;;;;;;;;;;;;2.44;52.45;97037.16;107682;1270;70630;-67
2022/12/13 10:08:34;;;;;;;12.20;8.70;;;;;;;2.26;53.04;97041.39;107693;1270;69829;-67
2022/12/13 10:11:04;;;;;;;13.60;9.80;;;;;;;2.03;55.59;97039.34;107664;1271;69264;-67
2022/12/13 10:13:59;;;;;;;10.50;7.70;;;;;;;1.93;56.13;97041.33;107657;1267;59758;-67
2022/12/13 10:16:35;;;;;;;13.10;9.80;;;;;;;1.78;55.81;97043.18;107559;1268;59904;-68
2022/12/13 10:19:33;;;;;;;11.60;8.60;;;;;;;1.65;55.54;97038.77;107712;1270;70614;-68
2022/12/13 10:22:04;;;;;;;12.00;8.30;;;;;;;1.87;56.25;97035.91;107664;1268;69053;-68
2022/12/13 10:24:53;;;;;;;11.60;8.90;;;;;;;2.09;56.14;97038.06;107324;1268;409118;-67
2022/12/13 10:27:29;;;;;;;13.40;8.10;;;;;;;2.07;55.01;97039.52;107672;1270;59754;-68
2022/12/13 10:30:08;;;;;;;12.30;8.00;;;;;;;1.89;55.29;97040.81;107681;1269;59732;-67
2022/12/13 10:32:54;;;;;;;11.40;7.50;;;;;;;1.72;53.97;97044.31;107652;1270;71700;-67
2022/12/13 10:35:36;;;;;;;12.80;9.50;;;;;;;1.45;55.15;97039.45;107679;1273;68048;-67
2022/12/13 10:38:07;;;;;;;16.40;11.80;;;;;;;1.36;56.39;97035.35;107662;1268;68467;-67
2022/12/13 10:40:39;;;;;;;24.80;17.90;;;;;;;1.00;58.77;97033.60;107712;1271;59719;-67
2022/12/13 10:43:14;;;;;;;14.60;9.90;;;;;;;0.57;60.18;97035.16;107645;1268;59733;-67
2022/12/13 10:45:56;;;;;;;13.20;9.60;;;;;;;0.29;61.23;97027.98;107675;1268;71932;-68
2022/12/13 10:48:34;;;;;;;12.40;8.80;;;;;;;0.05;62.13;97028.88;107670;1270;70238;-68
2022/12/13 10:51:10;;;;;;;12.70;8.70;;;;;;;-0.14;62.23;97033.01;107623;1270;69619;-68
2022/12/13 10:53:44;;;;;;;14.20;10.30;;;;;;;-0.33;64.05;97035.39;107639;1269;59652;-67
2022/12/13 10:56:17;;;;;;;13.10;9.20;;;;;;;-0.38;62.98;97033.52;107686;1270;60152;-67
2022/12/13 10:59:09;;;;;;;13.40;9.20;;;;;;;-0.56;64.61;97029.70;107621;1270;70899;-67
2022/12/13 11:01:45;;;;;;;13.60;10.10;;;;;;;-0.86;65.41;97027.97;107666;1268;69129;-67
2022/12/13 11:04:33;;;;;;;10.30;7.60;;;;;;;-0.94;66.12;97029.78;107701;1269;69951;-66
2022/12/13 11:07:21;;;;;;;13.10;8.80;;;;;;;-0.98;65.98;97026.66;107651;1261;59697;-67
2022/12/13 11:09:50;;;;;;;16.20;9.30;;;;;;;-1.02;65.04;97025.08;107668;1269;59658;-67
2022/12/13 11:12:22;;;;;;;;;;;;;;;-1.10;66.05;97019.87;107679;1270;70491;-67
2022/12/13 11:14:59;;;;;;;11.10;7.00;;;;;;;-1.13;65.53;97015.69;107661;1267;68422;-67
2022/12/13 11:17:33;;;;;;;13.00;7.60;;;;;;;-1.10;64.75;97016.27;107646;1266;69228;-67
2022/12/13 11:20:18;;;;;;;13.70;9.10;;;;;;;-1.02;65.35;97017.22;107688;1269;59734;-67
2022/12/13 11:22:48;;;;;;;15.90;10.40;;;;;;;-1.03;66.50;97021.17;107661;1269;59752;-67
2022/12/13 11:25:38;;;;;;;13.90;10.20;;;;;;;-1.00;66.39;97015.64;107657;1269;71403;-67
2022/12/13 11:28:34;;;;;;;13.90;9.30;;;;;;;-1.13;67.74;97020.48;107882;1270;69846;-67
2022/12/13 11:31:21;;;;;;;12.70;9.60;;;;;;;-1.14;67.79;97024.95;107662;1270;69130;-67
2022/12/13 11:34:18;;;;;;;13.80;8.80;;;;;;;-1.19;67.40;97024.61;107712;1269;59690;-68
2022/12/13 11:37:11;;;;;;;15.50;9.60;;;;;;;-1.23;68.12;97024.23;107754;1268;59719;-67
2022/12/13 11:39:49;;;;;;;12.00;8.50;;;;;;;-1.23;67.69;97024.07;107655;1270;72084;-67
2022/12/13 11:42:47;;;;;;;13.70;9.60;;;;;;;-1.28;67.86;97026.77;107769;1268;68210;-68
2022/12/13 11:45:31;;;;;;;12.40;8.40;;;;;;;-1.31;67.87;97024.48;107569;1270;69578;-68
2022/12/13 11:48:08;;;;;;;12.10;8.20;;;;;;;-1.34;68.06;97020.48;107777;1264;59724;-67
2022/12/13 11:50:50;;;;;;;14.40;10.00;;;;;;;-1.27;67.99;97023.85;107740;1271;60110;-67
2022/12/13 11:53:25;;;;;;;13.20;9.00;;;;;;;-1.26;67.46;97021.76;107679;1270;72000;-67
2022/12/13 11:55:59;;;;;;;12.00;9.10;;;;;;;-1.29;67.42;97023.75;107693;1266;69176;-67
2022/12/13 11:58:54;;;;;;;11.10;8.00;;;;;;;-1.39;67.81;97019.44;107715;1270;69161;-67
2022/12/13 12:02:02;;;;;;;10.80;8.10;;;;;;;-1.44;68.73;97017.04;107640;1267;59790;-67